sensor_id;sensor_type;location;lat;lon;timestamp;P1;durP1;ratioP1;P2;durP2;ratioP2
22515;SDS011;11424;48.860;9.624;2023-04-08T00:02:06;14.1;;;15.4;;
22515;SDS011;11424;48.860;9.624;2023-04-08T00:07:06;13.4;;;14.6;;
22515;SDS011;11424;48.860;9.624;2023-04-08T00:12:06;14.6;;;15.9;;
22515;SDS011;11424;48.860;9.624;2023-04-08T00:17:06;15.8;;;17.1;;
22515;SDS011;11424;48.860;9.624;2023-04-08T00:22:06;13.3;;;14.4;;
22515;SDS011;11424;48.860;9.624;2023-04-08T00:27:06;17.1;;;18.4;;
22515;SDS011;11424;48.860;9.624;2023-04-08T00:32:06;16.7;;;17.9;;
22515;SDS011;11424;48.860;9.624;2023-04-08T00:37:06;18;;;19.4;;
22515;SDS011;11424;48.860;9.624;2023-04-08T00:42:06;33.8;;;57.4;;
22515;SDS011;11424;48.860;9.624;2023-04-08T00:47:06;43.3;;;60.1;;
22515;SDS011;11424;48.860;9.624;2023-04-08T00:52:06;45.5;;;60;;
22515;SDS011;11424;48.860;9.624;2023-04-08T00:57:06;38.7;;;62.1;;
22515;SDS011;11424;48.860;9.624;2023-04-08T01:02:09;48.4;;;59;;
22515;SDS011;11424;48.860;9.624;2023-04-08T01:07:07;54;;;73.9;;
22515;SDS011;11424;48.860;9.624;2023-04-08T01:12:06;57.2;;;66.5;;
22515;SDS011;11424;48.860;9.624;2023-04-08T01:17:06;58.4;;;67.5;;
22515;SDS011;11424;48.860;9.624;2023-04-08T01:22:09;62;;;72.1;;
22515;SDS011;11424;48.860;9.624;2023-04-08T01:27:06;54.8;;;67.7;;
22515;SDS011;11424;48.860;9.624;2023-04-08T01:32:06;41.5;;;57.3;;
22515;SDS011;11424;48.860;9.624;2023-04-08T01:37:06;44.9;;;62;;
22515;SDS011;11424;48.860;9.624;2023-04-08T01:42:06;35.2;;;57.4;;
22515;SDS011;11424;48.860;9.624;2023-04-08T01:47:06;17.7;;;19;;
22515;SDS011;11424;48.860;9.624;2023-04-08T01:52:06;15.1;;;16.3;;
22515;SDS011;11424;48.860;9.624;2023-04-08T01:57:06;19.3;;;20.8;;
22515;SDS011;11424;48.860;9.624;2023-04-08T02:02:07;27;;;50.4;;
22515;SDS011;11424;48.860;9.624;2023-04-08T02:07:06;21.1;;;38.8;;
22515;SDS011;11424;48.860;9.624;2023-04-08T02:12:06;23;;;45.6;;
22515;SDS011;11424;48.860;9.624;2023-04-08T02:17:07;23.7;;;48.4;;
22515;SDS011;11424;48.860;9.624;2023-04-08T02:22:07;24.9;;;47.3;;
22515;SDS011;11424;48.860;9.624;2023-04-08T02:27:06;30.1;;;54.3;;
22515;SDS011;11424;48.860;9.624;2023-04-08T02:32:06;29.3;;;31.2;;
22515;SDS011;11424;48.860;9.624;2023-04-08T02:37:06;33.6;;;35.8;;
22515;SDS011;11424;48.860;9.624;2023-04-08T02:42:06;46.6;;;61.6;;
22515;SDS011;11424;48.860;9.624;2023-04-08T02:47:06;27.4;;;57.9;;
22515;SDS011;11424;48.860;9.624;2023-04-08T02:52:06;52.9;;;61.4;;
22515;SDS011;11424;48.860;9.624;2023-04-08T02:57:06;62.1;;;71.5;;
22515;SDS011;11424;48.860;9.624;2023-04-08T03:02:06;53.3;;;60.2;;
22515;SDS011;11424;48.860;9.624;2023-04-08T03:07:06;40.5;;;60.8;;
22515;SDS011;11424;48.860;9.624;2023-04-08T03:12:06;52.3;;;67;;
22515;SDS011;11424;48.860;9.624;2023-04-08T03:17:06;56.1;;;60.3;;
22515;SDS011;11424;48.860;9.624;2023-04-08T03:22:06;58.2;;;64.8;;
22515;SDS011;11424;48.860;9.624;2023-04-08T03:27:06;62.2;;;70.4;;
22515;SDS011;11424;48.860;9.624;2023-04-08T03:32:06;55.6;;;62.3;;
22515;SDS011;11424;48.860;9.624;2023-04-08T03:37:06;37.1;;;57.3;;
22515;SDS011;11424;48.860;9.624;2023-04-08T03:42:06;62.1;;;70.3;;
22515;SDS011;11424;48.860;9.624;2023-04-08T03:47:06;65.7;;;73.4;;
22515;SDS011;11424;48.860;9.624;2023-04-08T03:52:06;75.3;;;83.6;;
22515;SDS011;11424;48.860;9.624;2023-04-08T03:57:06;70.8;;;78.1;;
22515;SDS011;11424;48.860;9.624;2023-04-08T04:02:06;33.5;;;36.6;;
22515;SDS011;11424;48.860;9.624;2023-04-08T04:07:06;18.9;;;38.6;;
22515;SDS011;11424;48.860;9.624;2023-04-08T04:12:06;29.6;;;40.9;;
22515;SDS011;11424;48.860;9.624;2023-04-08T04:17:06;19.4;;;33.4;;
22515;SDS011;11424;48.860;9.624;2023-04-08T04:22:06;19.9;;;36.6;;
22515;SDS011;11424;48.860;9.624;2023-04-08T04:27:06;17.3;;;33.3;;
22515;SDS011;11424;48.860;9.624;2023-04-08T04:32:06;17.1;;;35.5;;
22515;SDS011;11424;48.860;9.624;2023-04-08T04:37:06;16.9;;;35.4;;
22515;SDS011;11424;48.860;9.624;2023-04-08T04:42:06;8.7;;;10.1;;
22515;SDS011;11424;48.860;9.624;2023-04-08T04:47:06;17.8;;;35.4;;
22515;SDS011;11424;48.860;9.624;2023-04-08T04:52:06;16;;;29.5;;
22515;SDS011;11424;48.860;9.624;2023-04-08T04:57:06;17.6;;;33.2;;
22515;SDS011;11424;48.860;9.624;2023-04-08T05:02:06;18.1;;;36.7;;
22515;SDS011;11424;48.860;9.624;2023-04-08T05:07:06;19.6;;;38.4;;
22515;SDS011;11424;48.860;9.624;2023-04-08T05:12:06;18.7;;;36.6;;
22515;SDS011;11424;48.860;9.624;2023-04-08T05:17:06;17;;;31.4;;
22515;SDS011;11424;48.860;9.624;2023-04-08T05:22:06;18.9;;;38;;
22515;SDS011;11424;48.860;9.624;2023-04-08T05:27:06;8.5;;;9.8;;
22515;SDS011;11424;48.860;9.624;2023-04-08T05:32:06;7.3;;;9.9;;
22515;SDS011;11424;48.860;9.624;2023-04-08T05:37:06;6.8;;;8.6;;
22515;SDS011;11424;48.860;9.624;2023-04-08T05:42:06;6.5;;;7.3;;
22515;SDS011;11424;48.860;9.624;2023-04-08T05:47:06;18.5;;;38.2;;
22515;SDS011;11424;48.860;9.624;2023-04-08T05:52:06;15.4;;;32.4;;
22515;SDS011;11424;48.860;9.624;2023-04-08T05:57:06;17.3;;;35;;
22515;SDS011;11424;48.860;9.624;2023-04-08T06:02:06;15.5;;;33.3;;
22515;SDS011;11424;48.860;9.624;2023-04-08T06:07:06;14.7;;;30.4;;
22515;SDS011;11424;48.860;9.624;2023-04-08T06:12:06;7.6;;;8.9;;
22515;SDS011;11424;48.860;9.624;2023-04-08T06:17:06;6.6;;;8.5;;
22515;SDS011;11424;48.860;9.624;2023-04-08T06:22:06;6.7;;;8;;
22515;SDS011;11424;48.860;9.624;2023-04-08T06:27:06;17;;;31.6;;
22515;SDS011;11424;48.860;9.624;2023-04-08T06:32:06;15;;;27.9;;
22515;SDS011;11424;48.860;9.624;2023-04-08T06:37:06;14.4;;;28.9;;
22515;SDS011;11424;48.860;9.624;2023-04-08T06:42:06;15.6;;;29.4;;
22515;SDS011;11424;48.860;9.624;2023-04-08T06:47:06;17.3;;;29.5;;
22515;SDS011;11424;48.860;9.624;2023-04-08T06:52:06;14.9;;;28.8;;
22515;SDS011;11424;48.860;9.624;2023-04-08T06:57:06;4.9;;;7.3;;
22515;SDS011;11424;48.860;9.624;2023-04-08T07:02:06;4.8;;;6.5;;
22515;SDS011;11424;48.860;9.624;2023-04-08T07:07:06;12.5;;;24.7;;
22515;SDS011;11424;48.860;9.624;2023-04-08T07:12:06;13.1;;;24.5;;
22515;SDS011;11424;48.860;9.624;2023-04-08T07:17:06;13.2;;;25;;
22515;SDS011;11424;48.860;9.624;2023-04-08T07:22:06;12.8;;;24.1;;
22515;SDS011;11424;48.860;9.624;2023-04-08T07:27:07;14.3;;;26.5;;
22515;SDS011;11424;48.860;9.624;2023-04-08T07:32:06;13.9;;;26.6;;
22515;SDS011;11424;48.860;9.624;2023-04-08T07:37:06;10.7;;;17.6;;
22515;SDS011;11424;48.860;9.624;2023-04-08T07:42:06;6.5;;;8.1;;
22515;SDS011;11424;48.860;9.624;2023-04-08T07:47:07;17.2;;;30.9;;
22515;SDS011;11424;48.860;9.624;2023-04-08T07:52:06;15.2;;;28.5;;
22515;SDS011;11424;48.860;9.624;2023-04-08T07:57:06;15.7;;;28.1;;
22515;SDS011;11424;48.860;9.624;2023-04-08T08:02:06;14.4;;;25.4;;
22515;SDS011;11424;48.860;9.624;2023-04-08T08:07:06;13.3;;;24.2;;
22515;SDS011;11424;48.860;9.624;2023-04-08T08:12:06;14.2;;;25.9;;
22515;SDS011;11424;48.860;9.624;2023-04-08T08:17:06;15.3;;;25.2;;
22515;SDS011;11424;48.860;9.624;2023-04-08T08:22:06;7.3;;;8.4;;
22515;SDS011;11424;48.860;9.624;2023-04-08T08:27:08;15.6;;;26.6;;
22515;SDS011;11424;48.860;9.624;2023-04-08T08:32:06;15.5;;;28.2;;
22515;SDS011;11424;48.860;9.624;2023-04-08T08:37:06;15.4;;;25.9;;
22515;SDS011;11424;48.860;9.624;2023-04-08T08:42:16;13.1;;;22.4;;
22515;SDS011;11424;48.860;9.624;2023-04-08T08:47:06;14.2;;;23.5;;
22515;SDS011;11424;48.860;9.624;2023-04-08T08:52:06;16.7;;;27.1;;
22515;SDS011;11424;48.860;9.624;2023-04-08T08:57:15;16.2;;;27.5;;
22515;SDS011;11424;48.860;9.624;2023-04-08T09:02:11;16.1;;;27.4;;
22515;SDS011;11424;48.860;9.624;2023-04-08T09:07:07;8.4;;;10.5;;
22515;SDS011;11424;48.860;9.624;2023-04-08T09:12:06;8.7;;;10.3;;
22515;SDS011;11424;48.860;9.624;2023-04-08T09:17:06;8.3;;;10.5;;
22515;SDS011;11424;48.860;9.624;2023-04-08T09:22:07;5.7;;;6.6;;
22515;SDS011;11424;48.860;9.624;2023-04-08T09:27:06;15.8;;;26.7;;
22515;SDS011;11424;48.860;9.624;2023-04-08T09:32:06;18.1;;;31;;
22515;SDS011;11424;48.860;9.624;2023-04-08T09:37:07;13.5;;;24.2;;
22515;SDS011;11424;48.860;9.624;2023-04-08T09:42:06;17.4;;;28.6;;
22515;SDS011;11424;48.860;9.624;2023-04-08T09:47:07;38.1;;;44.3;;
22515;SDS011;11424;48.860;9.624;2023-04-08T09:52:07;73.1;;;80.2;;
22515;SDS011;11424;48.860;9.624;2023-04-08T09:57:08;68.2;;;74.4;;
22515;SDS011;11424;48.860;9.624;2023-04-08T10:02:08;63.9;;;69.2;;
22515;SDS011;11424;48.860;9.624;2023-04-08T10:07:07;68.5;;;76.1;;
22515;SDS011;11424;48.860;9.624;2023-04-08T10:12:07;65.3;;;72.3;;
22515;SDS011;11424;48.860;9.624;2023-04-08T10:17:38;77.2;;;85.7;;
22515;SDS011;11424;48.860;9.624;2023-04-08T10:22:44;58.3;;;65.4;;
22515;SDS011;11424;48.860;9.624;2023-04-08T10:27:08;78;;;86.1;;
22515;SDS011;11424;48.860;9.624;2023-04-08T10:32:07;61.6;;;68.7;;
22515;SDS011;11424;48.860;9.624;2023-04-08T10:37:07;53.8;;;57.8;;
22515;SDS011;11424;48.860;9.624;2023-04-08T10:42:07;39.2;;;42;;
22515;SDS011;11424;48.860;9.624;2023-04-08T10:47:07;48.7;;;55.9;;
22515;SDS011;11424;48.860;9.624;2023-04-08T10:52:07;65.1;;;78.1;;
22515;SDS011;11424;48.860;9.624;2023-04-08T10:57:07;50.7;;;58.9;;
22515;SDS011;11424;48.860;9.624;2023-04-08T11:02:11;52;;;58.2;;
22515;SDS011;11424;48.860;9.624;2023-04-08T11:07:07;39.6;;;50;;
22515;SDS011;11424;48.860;9.624;2023-04-08T11:12:07;44.4;;;63.1;;
22515;SDS011;11424;48.860;9.624;2023-04-08T11:17:07;45.6;;;51.1;;
22515;SDS011;11424;48.860;9.624;2023-04-08T11:22:07;57.5;;;62.5;;
22515;SDS011;11424;48.860;9.624;2023-04-08T11:27:07;58.4;;;65.3;;
22515;SDS011;11424;48.860;9.624;2023-04-08T11:32:07;57.1;;;63.6;;
22515;SDS011;11424;48.860;9.624;2023-04-08T11:37:07;50.7;;;60.8;;
22515;SDS011;11424;48.860;9.624;2023-04-08T11:42:07;58.6;;;65.5;;
22515;SDS011;11424;48.860;9.624;2023-04-08T11:47:07;54.4;;;61;;
22515;SDS011;11424;48.860;9.624;2023-04-08T11:52:07;56;;;62.7;;
22515;SDS011;11424;48.860;9.624;2023-04-08T11:57:07;55.4;;;62.2;;
22515;SDS011;11424;48.860;9.624;2023-04-08T12:02:07;79.8;;;87.2;;
22515;SDS011;11424;48.860;9.624;2023-04-08T12:07:07;77.7;;;85.6;;
22515;SDS011;11424;48.860;9.624;2023-04-08T12:12:07;91.9;;;102;;
22515;SDS011;11424;48.860;9.624;2023-04-08T12:17:07;106.6;;;133.6;;
22515;SDS011;11424;48.860;9.624;2023-04-08T12:22:07;127.5;;;177.1;;
22515;SDS011;11424;48.860;9.624;2023-04-08T12:27:07;83.2;;;112.3;;
22515;SDS011;11424;48.860;9.624;2023-04-08T12:32:07;8.8;;;11.1;;
22515;SDS011;11424;48.860;9.624;2023-04-08T12:37:07;7.7;;;10;;
22515;SDS011;11424;48.860;9.624;2023-04-08T12:42:07;9.6;;;16.8;;
22515;SDS011;11424;48.860;9.624;2023-04-08T12:47:07;6.8;;;8.1;;
22515;SDS011;11424;48.860;9.624;2023-04-08T12:52:07;6.5;;;7.2;;
22515;SDS011;11424;48.860;9.624;2023-04-08T12:57:07;5.4;;;6;;
22515;SDS011;11424;48.860;9.624;2023-04-08T13:02:07;5.8;;;7;;
22515;SDS011;11424;48.860;9.624;2023-04-08T13:07:07;7.4;;;9.5;;
22515;SDS011;11424;48.860;9.624;2023-04-08T13:12:07;6.2;;;8;;
22515;SDS011;11424;48.860;9.624;2023-04-08T13:17:07;9.1;;;13.2;;
22515;SDS011;11424;48.860;9.624;2023-04-08T13:22:07;9.2;;;14.2;;
22515;SDS011;11424;48.860;9.624;2023-04-08T13:27:07;8.4;;;11.9;;
22515;SDS011;11424;48.860;9.624;2023-04-08T13:32:07;5.3;;;5.9;;
22515;SDS011;11424;48.860;9.624;2023-04-08T13:37:07;49.3;;;52.8;;
22515;SDS011;11424;48.860;9.624;2023-04-08T13:42:08;65;;;70.6;;
22515;SDS011;11424;48.860;9.624;2023-04-08T13:47:07;75.8;;;85.3;;
22515;SDS011;11424;48.860;9.624;2023-04-08T13:52:07;112.1;;;147.1;;
22515;SDS011;11424;48.860;9.624;2023-04-08T13:57:07;80.8;;;102.3;;
22515;SDS011;11424;48.860;9.624;2023-04-08T14:02:07;71.3;;;79.5;;
22515;SDS011;11424;48.860;9.624;2023-04-08T14:07:07;73.7;;;81.9;;
22515;SDS011;11424;48.860;9.624;2023-04-08T14:12:07;27.2;;;41.7;;
22515;SDS011;11424;48.860;9.624;2023-04-08T14:17:07;82.2;;;91.4;;
22515;SDS011;11424;48.860;9.624;2023-04-08T14:22:07;47.8;;;50.8;;
22515;SDS011;11424;48.860;9.624;2023-04-08T14:27:07;56.2;;;63;;
22515;SDS011;11424;48.860;9.624;2023-04-08T14:32:07;61.4;;;69.2;;
22515;SDS011;11424;48.860;9.624;2023-04-08T14:37:07;94.8;;;110;;
22515;SDS011;11424;48.860;9.624;2023-04-08T14:42:07;57.7;;;64.1;;
22515;SDS011;11424;48.860;9.624;2023-04-08T14:47:07;152.1;;;202.3;;
22515;SDS011;11424;48.860;9.624;2023-04-08T14:52:07;91.1;;;108.1;;
22515;SDS011;11424;48.860;9.624;2023-04-08T14:57:07;248.5;;;362.3;;
22515;SDS011;11424;48.860;9.624;2023-04-08T15:02:07;157.6;;;209.8;;
22515;SDS011;11424;48.860;9.624;2023-04-08T15:07:07;130.5;;;147.8;;
22515;SDS011;11424;48.860;9.624;2023-04-08T15:12:07;135.9;;;156.2;;
22515;SDS011;11424;48.860;9.624;2023-04-08T15:17:07;195;;;254.5;;
22515;SDS011;11424;48.860;9.624;2023-04-08T15:22:07;180.6;;;234.2;;
22515;SDS011;11424;48.860;9.624;2023-04-08T15:27:07;86.8;;;96.3;;
22515;SDS011;11424;48.860;9.624;2023-04-08T15:32:07;85.3;;;94.8;;
22515;SDS011;11424;48.860;9.624;2023-04-08T15:37:07;150.1;;;172.5;;
22515;SDS011;11424;48.860;9.624;2023-04-08T15:42:07;196.2;;;267.5;;
22515;SDS011;11424;48.860;9.624;2023-04-08T15:47:07;181.3;;;235.2;;
22515;SDS011;11424;48.860;9.624;2023-04-08T15:52:07;88.9;;;109.1;;
22515;SDS011;11424;48.860;9.624;2023-04-08T15:57:07;43.7;;;52.6;;
22515;SDS011;11424;48.860;9.624;2023-04-08T16:02:07;84;;;133.5;;
22515;SDS011;11424;48.860;9.624;2023-04-08T16:07:07;94.7;;;106.7;;
22515;SDS011;11424;48.860;9.624;2023-04-08T16:12:07;108.6;;;136.1;;
22515;SDS011;11424;48.860;9.624;2023-04-08T16:17:07;8;;;9.9;;
22515;SDS011;11424;48.860;9.624;2023-04-08T16:22:07;5.8;;;6.8;;
22515;SDS011;11424;48.860;9.624;2023-04-08T16:27:07;6.5;;;7.2;;
22515;SDS011;11424;48.860;9.624;2023-04-08T16:32:07;5.4;;;6;;
22515;SDS011;11424;48.860;9.624;2023-04-08T16:37:07;5.1;;;5.7;;
22515;SDS011;11424;48.860;9.624;2023-04-08T16:42:07;8.5;;;10.7;;
22515;SDS011;11424;48.860;9.624;2023-04-08T16:47:07;5.8;;;6.9;;
22515;SDS011;11424;48.860;9.624;2023-04-08T16:52:07;5.2;;;5.9;;
22515;SDS011;11424;48.860;9.624;2023-04-08T16:57:07;6.3;;;9;;
22515;SDS011;11424;48.860;9.624;2023-04-08T17:02:07;5.4;;;6.1;;
22515;SDS011;11424;48.860;9.624;2023-04-08T17:07:07;11.4;;;24.2;;
22515;SDS011;11424;48.860;9.624;2023-04-08T17:12:07;5.9;;;6.5;;
22515;SDS011;11424;48.860;9.624;2023-04-08T17:17:07;5.2;;;5.7;;
22515;SDS011;11424;48.860;9.624;2023-04-08T17:22:07;4.6;;;5.1;;
22515;SDS011;11424;48.860;9.624;2023-04-08T17:27:07;5.9;;;6.6;;
22515;SDS011;11424;48.860;9.624;2023-04-08T17:32:07;5.4;;;5.9;;
22515;SDS011;11424;48.860;9.624;2023-04-08T17:37:07;4.4;;;4.9;;
22515;SDS011;11424;48.860;9.624;2023-04-08T17:42:07;4.2;;;4.7;;
22515;SDS011;11424;48.860;9.624;2023-04-08T17:47:07;5.5;;;6.1;;
22515;SDS011;11424;48.860;9.624;2023-04-08T17:52:07;5.4;;;6;;
22515;SDS011;11424;48.860;9.624;2023-04-08T17:57:07;6.2;;;6.8;;
22515;SDS011;11424;48.860;9.624;2023-04-08T18:02:07;6;;;7.1;;
22515;SDS011;11424;48.860;9.624;2023-04-08T18:07:07;5.6;;;6.2;;
22515;SDS011;11424;48.860;9.624;2023-04-08T18:12:07;6.7;;;7.4;;
22515;SDS011;11424;48.860;9.624;2023-04-08T18:17:07;6.9;;;8.1;;
22515;SDS011;11424;48.860;9.624;2023-04-08T18:22:07;6.1;;;6.8;;
22515;SDS011;11424;48.860;9.624;2023-04-08T18:27:07;14.5;;;16.2;;
22515;SDS011;11424;48.860;9.624;2023-04-08T18:32:07;6.4;;;7.1;;
22515;SDS011;11424;48.860;9.624;2023-04-08T18:37:07;5.1;;;5.7;;
22515;SDS011;11424;48.860;9.624;2023-04-08T18:42:07;7.3;;;8.1;;
22515;SDS011;11424;48.860;9.624;2023-04-08T18:47:07;31.3;;;34;;
22515;SDS011;11424;48.860;9.624;2023-04-08T18:52:07;16.6;;;20.2;;
22515;SDS011;11424;48.860;9.624;2023-04-08T18:57:07;116.4;;;181.9;;
22515;SDS011;11424;48.860;9.624;2023-04-08T19:02:07;10;;;10.9;;
22515;SDS011;11424;48.860;9.624;2023-04-08T19:07:07;5.6;;;6.2;;
22515;SDS011;11424;48.860;9.624;2023-04-08T19:12:07;5.8;;;6.5;;
22515;SDS011;11424;48.860;9.624;2023-04-08T19:17:07;5.1;;;5.7;;
22515;SDS011;11424;48.860;9.624;2023-04-08T19:22:07;16.9;;;22.6;;
22515;SDS011;11424;48.860;9.624;2023-04-08T19:27:07;10.7;;;11.7;;
22515;SDS011;11424;48.860;9.624;2023-04-08T19:32:07;4.9;;;5.5;;
22515;SDS011;11424;48.860;9.624;2023-04-08T19:37:07;6.6;;;7.3;;
22515;SDS011;11424;48.860;9.624;2023-04-08T19:42:07;11.2;;;12.1;;
22515;SDS011;11424;48.860;9.624;2023-04-08T19:47:07;6;;;6.6;;
22515;SDS011;11424;48.860;9.624;2023-04-08T19:52:07;18.7;;;20.2;;
22515;SDS011;11424;48.860;9.624;2023-04-08T19:57:07;5.4;;;6;;
22515;SDS011;11424;48.860;9.624;2023-04-08T20:02:07;4.7;;;5.4;;
22515;SDS011;11424;48.860;9.624;2023-04-08T20:07:07;4.3;;;4.8;;
22515;SDS011;11424;48.860;9.624;2023-04-08T20:12:07;4.3;;;5.1;;
22515;SDS011;11424;48.860;9.624;2023-04-08T20:17:07;4.5;;;5;;
22515;SDS011;11424;48.860;9.624;2023-04-08T20:22:07;6.1;;;6.7;;
22515;SDS011;11424;48.860;9.624;2023-04-08T20:27:07;6.2;;;6.8;;
22515;SDS011;11424;48.860;9.624;2023-04-08T20:32:07;5.8;;;6.8;;
22515;SDS011;11424;48.860;9.624;2023-04-08T20:37:07;6.3;;;7.2;;
22515;SDS011;11424;48.860;9.624;2023-04-08T20:42:07;6.3;;;7;;
22515;SDS011;11424;48.860;9.624;2023-04-08T20:47:07;6.8;;;7.6;;
22515;SDS011;11424;48.860;9.624;2023-04-08T20:52:07;11.7;;;12.9;;
22515;SDS011;11424;48.860;9.624;2023-04-08T20:57:07;7.7;;;9;;
22515;SDS011;11424;48.860;9.624;2023-04-08T21:02:07;12.3;;;13.8;;
22515;SDS011;11424;48.860;9.624;2023-04-08T21:07:07;10.4;;;13.2;;
22515;SDS011;11424;48.860;9.624;2023-04-08T21:12:07;7.8;;;12.1;;
22515;SDS011;11424;48.860;9.624;2023-04-08T21:17:07;7.9;;;12.1;;
22515;SDS011;11424;48.860;9.624;2023-04-08T21:22:07;10;;;19.1;;
22515;SDS011;11424;48.860;9.624;2023-04-08T21:27:07;9;;;16.1;;
22515;SDS011;11424;48.860;9.624;2023-04-08T21:32:07;14;;;29;;
22515;SDS011;11424;48.860;9.624;2023-04-08T21:37:07;11.4;;;22.6;;
22515;SDS011;11424;48.860;9.624;2023-04-08T21:42:07;9.1;;;15.5;;
22515;SDS011;11424;48.860;9.624;2023-04-08T21:47:07;9.3;;;12.4;;
22515;SDS011;11424;48.860;9.624;2023-04-08T21:52:07;10.6;;;15.5;;
22515;SDS011;11424;48.860;9.624;2023-04-08T21:57:07;5.7;;;7;;
22515;SDS011;11424;48.860;9.624;2023-04-08T22:02:07;6.7;;;7.4;;
22515;SDS011;11424;48.860;9.624;2023-04-08T22:07:07;14.1;;;15.6;;
22515;SDS011;11424;48.860;9.624;2023-04-08T22:12:07;9.1;;;10.1;;
22515;SDS011;11424;48.860;9.624;2023-04-08T22:17:07;10.5;;;11.5;;
22515;SDS011;11424;48.860;9.624;2023-04-08T22:22:07;10.6;;;11.6;;
22515;SDS011;11424;48.860;9.624;2023-04-08T22:27:07;64.9;;;76;;
22515;SDS011;11424;48.860;9.624;2023-04-08T22:32:07;31.2;;;34.7;;
22515;SDS011;11424;48.860;9.624;2023-04-08T22:37:07;7.9;;;8.7;;
22515;SDS011;11424;48.860;9.624;2023-04-08T22:42:07;6;;;6.7;;
22515;SDS011;11424;48.860;9.624;2023-04-08T22:47:07;6.4;;;7.3;;
22515;SDS011;11424;48.860;9.624;2023-04-08T22:52:07;6.9;;;7.9;;
22515;SDS011;11424;48.860;9.624;2023-04-08T22:57:07;5.9;;;6.6;;
22515;SDS011;11424;48.860;9.624;2023-04-08T23:02:07;5.7;;;6.9;;
22515;SDS011;11424;48.860;9.624;2023-04-08T23:07:07;5.3;;;6.1;;
22515;SDS011;11424;48.860;9.624;2023-04-08T23:12:07;5.9;;;6.8;;
22515;SDS011;11424;48.860;9.624;2023-04-08T23:17:07;33.8;;;38.8;;
22515;SDS011;11424;48.860;9.624;2023-04-08T23:22:07;16.4;;;18;;
22515;SDS011;11424;48.860;9.624;2023-04-08T23:27:07;20.2;;;22.5;;
22515;SDS011;11424;48.860;9.624;2023-04-08T23:32:07;33.7;;;37.2;;
22515;SDS011;11424;48.860;9.624;2023-04-08T23:37:07;53;;;63;;
22515;SDS011;11424;48.860;9.624;2023-04-08T23:42:08;53.3;;;59.2;;
22515;SDS011;11424;48.860;9.624;2023-04-08T23:47:07;33.4;;;36.9;;
22515;SDS011;11424;48.860;9.624;2023-04-08T23:52:07;30.8;;;33.8;;
22515;SDS011;11424;48.860;9.624;2023-04-08T23:57:07;27.9;;;30.5;;
